createdAt,value
2022-12-14T00:02:06.792Z,10.25
2022-12-14T00:04:34.384Z,9.70
2022-12-14T00:07:01.971Z,8.20
2022-12-14T00:09:29.593Z,8.32
2022-12-14T00:11:57.178Z,8.68
2022-12-14T00:14:24.768Z,14.70
2022-12-14T00:16:52.337Z,17.30
2022-12-14T00:19:19.843Z,11.10
2022-12-14T00:21:47.460Z,9.15
2022-12-14T00:24:15.013Z,8.88
2022-12-14T00:26:42.480Z,9.50
2022-12-14T00:29:09.980Z,8.50
2022-12-14T00:31:37.611Z,10.05
2022-12-14T00:34:05.249Z,10.57
2022-12-14T00:36:32.879Z,10.40
2022-12-14T00:39:00.488Z,9.48
2022-12-14T00:41:28.268Z,8.98
2022-12-14T00:43:55.939Z,8.82
2022-12-14T00:46:23.604Z,9.35
2022-12-14T00:48:51.255Z,9.02
2022-12-14T00:51:18.828Z,8.68
2022-12-14T00:53:46.477Z,8.60
2022-12-14T00:56:14.458Z,8.90
2022-12-14T00:58:42.055Z,8.32
2022-12-14T01:01:13.777Z,8.95
2022-12-14T01:03:42.505Z,8.80
2022-12-14T01:06:15.319Z,8.02
2022-12-14T01:08:43.026Z,8.30
2022-12-14T01:11:11.744Z,8.88
2022-12-14T01:13:40.409Z,8.40
2022-12-14T01:16:13.810Z,8.70
2022-12-14T01:18:43.122Z,8.55
2022-12-14T01:21:14.488Z,7.55
2022-12-14T01:23:42.868Z,7.00
2022-12-14T01:26:11.577Z,8.18
2022-12-14T01:28:39.167Z,8.55
2022-12-14T01:31:09.242Z,8.73
2022-12-14T01:33:37.245Z,9.40
2022-12-14T01:36:11.136Z,8.65
2022-12-14T01:38:39.004Z,7.97
2022-12-14T01:41:08.313Z,7.75
2022-12-14T01:43:48.804Z,7.45
2022-12-14T01:46:41.288Z,7.22
2022-12-14T01:49:19.794Z,8.00
2022-12-14T01:51:57.409Z,8.32
2022-12-14T01:54:27.346Z,8.82
2022-12-14T01:56:55.926Z,8.60
2022-12-14T01:59:33.175Z,8.13
2022-12-14T02:02:04.520Z,8.80
2022-12-14T02:04:37.833Z,9.15
2022-12-14T02:07:05.834Z,9.32
2022-12-14T02:09:38.566Z,9.00
2022-12-14T02:12:16.257Z,9.25
2022-12-14T02:14:45.402Z,8.85
2022-12-14T02:17:14.786Z,8.95
2022-12-14T02:19:44.069Z,9.70
2022-12-14T02:22:20.831Z,9.95
2022-12-14T02:25:12.970Z,9.73
2022-12-14T02:28:17.740Z,9.43
2022-12-14T02:30:55.545Z,9.57
2022-12-14T02:33:48.256Z,9.68
2022-12-14T02:36:33.999Z,9.43
2022-12-14T02:39:23.561Z,9.90
2022-12-14T02:42:09.583Z,9.63
2022-12-14T02:45:03.257Z,10.18
2022-12-14T02:47:45.749Z,10.30
2022-12-14T02:50:30.221Z,10.15
2022-12-14T02:53:21.796Z,10.40
2022-12-14T02:55:52.296Z,10.05
2022-12-14T02:58:28.637Z,10.68
2022-12-14T03:00:57.199Z,10.38
2022-12-14T03:03:25.437Z,11.55
2022-12-14T03:06:02.507Z,12.13
2022-12-14T03:08:35.647Z,15.48
2022-12-14T03:11:06.883Z,17.00
2022-12-14T03:13:43.408Z,18.30
2022-12-14T03:16:27.550Z,3.25
2022-12-14T03:19:03.233Z,22.20
2022-12-14T03:21:45.654Z,23.27
2022-12-14T03:24:22.481Z,22.85
2022-12-14T03:27:11.857Z,23.45
2022-12-14T03:29:46.202Z,3.83
2022-12-14T03:32:19.153Z,24.33
2022-12-14T03:34:56.553Z,25.85
2022-12-14T03:37:39.920Z,27.02
2022-12-14T03:40:12.513Z,25.70
2022-12-14T03:42:50.882Z,27.25
2022-12-14T03:45:33.322Z,26.52
2022-12-14T03:48:13.343Z,26.73
2022-12-14T03:50:48.955Z,28.48
2022-12-14T03:53:39.882Z,27.63
2022-12-14T03:56:13.171Z,28.45
2022-12-14T03:59:12.074Z,27.92
2022-12-14T04:01:46.594Z,28.88
2022-12-14T04:04:30.480Z,29.25
2022-12-14T04:07:17.199Z,28.92
2022-12-14T04:09:56.633Z,29.73
2022-12-14T04:12:51.542Z,28.90
2022-12-14T04:15:43.174Z,30.90
2022-12-14T04:18:39.427Z,30.70
2022-12-14T04:21:18.214Z,29.60
2022-12-14T04:24:13.181Z,29.25
2022-12-14T04:26:48.983Z,29.73
2022-12-14T04:29:42.742Z,31.02
2022-12-14T04:32:25.987Z,30.20
2022-12-14T04:34:59.711Z,30.02
2022-12-14T04:37:29.080Z,30.13
2022-12-14T04:40:05.761Z,31.80
2022-12-14T04:42:40.322Z,31.98
2022-12-14T04:45:14.407Z,30.58
2022-12-14T04:47:48.985Z,30.95
2022-12-14T04:50:27.555Z,32.07
2022-12-14T04:53:22.055Z,30.70
2022-12-14T04:56:02.198Z,31.30
2022-12-14T04:58:30.981Z,33.00
2022-12-14T05:01:18.847Z,31.95
2022-12-14T05:04:00.739Z,31.13
2022-12-14T05:07:14.545Z,33.05
2022-12-14T05:09:55.439Z,32.35
2022-12-14T05:12:39.618Z,32.72
2022-12-14T05:15:14.711Z,33.50
2022-12-14T05:17:42.975Z,33.63
2022-12-14T05:20:19.214Z,33.42
2022-12-14T05:22:47.006Z,33.15
2022-12-14T05:25:14.589Z,33.63
2022-12-14T05:27:42.158Z,31.83
2022-12-14T05:30:10.501Z,33.50
2022-12-14T05:32:38.220Z,32.92
2022-12-14T05:35:06.628Z,31.38
2022-12-14T05:37:34.228Z,32.42
2022-12-14T05:40:02.051Z,32.97
2022-12-14T05:42:29.743Z,32.50
2022-12-14T05:44:57.340Z,32.40
2022-12-14T05:47:26.192Z,33.28
2022-12-14T05:49:53.806Z,32.08
2022-12-14T05:52:21.360Z,32.05
2022-12-14T05:54:48.961Z,32.25
2022-12-14T05:57:16.605Z,32.22
2022-12-14T05:59:44.159Z,33.35
2022-12-14T06:02:12.130Z,31.67
2022-12-14T06:04:40.436Z,33.15
2022-12-14T06:07:11.473Z,34.05
2022-12-14T06:09:39.218Z,34.38
2022-12-14T06:12:06.899Z,33.92
2022-12-14T06:14:34.470Z,33.47
2022-12-14T06:17:02.089Z,32.88
2022-12-14T06:19:30.893Z,33.72
2022-12-14T06:21:58.598Z,33.78
2022-12-14T06:24:26.213Z,33.30
2022-12-14T06:26:53.765Z,34.83
2022-12-14T06:29:21.485Z,33.40
2022-12-14T06:31:49.684Z,33.33
2022-12-14T06:34:18.396Z,32.35
2022-12-14T06:36:47.045Z,33.03
2022-12-14T06:39:17.055Z,34.22
2022-12-14T06:41:48.819Z,32.72
2022-12-14T06:44:16.463Z,31.55
2022-12-14T06:46:44.890Z,32.63
2022-12-14T06:49:15.219Z,31.92
2022-12-14T06:51:43.725Z,31.98
2022-12-14T06:54:12.964Z,31.13
2022-12-14T06:56:41.764Z,30.48
2022-12-14T06:59:10.035Z,30.80
2022-12-14T07:01:38.426Z,30.33
2022-12-14T07:04:07.649Z,30.65
2022-12-14T07:06:37.800Z,31.45
2022-12-14T07:09:07.802Z,31.20
2022-12-14T07:11:35.505Z,31.35
2022-12-14T07:14:07.497Z,31.13
2022-12-14T07:16:37.398Z,31.27
2022-12-14T07:19:10.914Z,30.10
2022-12-14T07:21:38.639Z,31.10
2022-12-14T07:24:06.535Z,31.02
2022-12-14T07:26:34.685Z,31.60
2022-12-14T07:29:02.175Z,30.55
2022-12-14T07:31:29.914Z,29.60
2022-12-14T07:33:59.426Z,30.17
2022-12-14T07:36:29.318Z,29.23
2022-12-14T07:38:57.374Z,31.27
2022-12-14T07:41:28.233Z,30.08
2022-12-14T07:43:56.136Z,29.67
2022-12-14T07:46:26.299Z,29.70
2022-12-14T07:48:56.607Z,30.63
2022-12-14T07:51:26.908Z,31.38
2022-12-14T07:53:54.993Z,29.58
2022-12-14T07:56:25.594Z,30.50
2022-12-14T07:58:55.638Z,30.80
2022-12-14T08:01:29.265Z,30.80
2022-12-14T08:03:59.979Z,30.27
2022-12-14T08:06:29.951Z,30.60
2022-12-14T08:08:58.325Z,29.23
2022-12-14T08:11:25.939Z,28.95
2022-12-14T08:14:05.705Z,29.38
2022-12-14T08:16:34.175Z,29.45
2022-12-14T08:19:02.047Z,29.50
2022-12-14T08:21:30.380Z,31.00
2022-12-14T08:23:58.975Z,31.27
2022-12-14T08:26:31.601Z,29.23
2022-12-14T08:29:03.888Z,30.65
2022-12-14T08:31:31.721Z,31.42
2022-12-14T08:34:00.589Z,32.33
2022-12-14T08:36:30.919Z,30.58
2022-12-14T08:39:00.872Z,30.92
2022-12-14T08:41:29.478Z,31.23
2022-12-14T08:44:01.479Z,31.08
2022-12-14T08:46:34.787Z,30.70
2022-12-14T08:49:02.482Z,30.33
2022-12-14T08:51:30.134Z,32.28
2022-12-14T08:53:58.379Z,32.05
2022-12-14T08:56:28.118Z,31.65
2022-12-14T08:58:56.708Z,30.05
2022-12-14T09:01:32.910Z,31.42
2022-12-14T09:04:05.908Z,30.95
2022-12-14T09:06:36.001Z,30.17
2022-12-14T09:09:07.231Z,31.58
2022-12-14T09:11:38.176Z,31.40
2022-12-14T09:14:05.839Z,31.58
2022-12-14T09:16:34.083Z,30.25
2022-12-14T09:19:01.851Z,29.92
2022-12-14T09:21:29.418Z,29.58
2022-12-14T09:23:59.515Z,30.52
2022-12-14T09:26:27.909Z,30.35
2022-12-14T09:28:56.631Z,29.77
2022-12-14T09:31:26.765Z,30.30
2022-12-14T09:33:55.163Z,28.65
2022-12-14T09:36:25.027Z,30.00
2022-12-14T09:38:55.501Z,29.23
2022-12-14T09:41:25.898Z,29.70
2022-12-14T09:44:18.218Z,29.33
2022-12-14T09:47:04.750Z,47.53
2022-12-14T09:52:07.186Z,46.88
2022-12-14T09:54:38.676Z,101.05
2022-12-14T09:57:30.787Z,40.63
2022-12-14T09:59:58.542Z,32.92
2022-12-14T10:02:48.887Z,30.77
2022-12-14T10:05:22.867Z,29.10
2022-12-14T10:08:11.995Z,29.08
2022-12-14T10:10:58.035Z,27.92
2022-12-14T10:13:59.256Z,26.98
2022-12-14T10:16:29.477Z,28.35
2022-12-14T10:19:01.219Z,27.58
2022-12-14T10:21:57.471Z,26.58
2022-12-14T10:24:43.224Z,26.95
2022-12-14T10:27:21.370Z,23.98
2022-12-14T10:30:04.699Z,22.58
2022-12-14T10:32:35.914Z,22.83
2022-12-14T10:35:23.103Z,22.33
2022-12-14T10:38:03.809Z,23.23
2022-12-14T10:40:35.031Z,23.20
2022-12-14T10:43:28.143Z,23.80
2022-12-14T10:46:13.518Z,23.75
2022-12-14T10:51:25.505Z,22.20
2022-12-14T10:54:09.260Z,22.92
2022-12-14T10:56:41.156Z,19.95
2022-12-14T10:59:26.627Z,19.92
2022-12-14T11:01:59.797Z,21.85
2022-12-14T11:04:44.779Z,20.83
2022-12-14T11:07:15.871Z,21.05
2022-12-14T11:09:44.462Z,22.63
2022-12-14T11:12:28.225Z,21.92
2022-12-14T11:14:59.690Z,20.65
2022-12-14T11:17:39.709Z,21.48
2022-12-14T11:20:17.798Z,19.90
2022-12-14T11:22:49.661Z,18.50
2022-12-14T11:25:38.033Z,17.77
2022-12-14T11:28:23.430Z,17.30
2022-12-14T11:31:04.305Z,18.70
2022-12-14T11:33:40.783Z,17.85
2022-12-14T11:36:09.320Z,17.75
2022-12-14T11:38:36.951Z,18.20
2022-12-14T11:41:10.744Z,16.05
2022-12-14T11:43:39.545Z,16.70
2022-12-14T11:46:07.559Z,16.30
2022-12-14T11:48:38.482Z,15.98
2022-12-14T11:51:11.994Z,16.48
2022-12-14T11:53:40.425Z,17.23
2022-12-14T11:56:15.318Z,14.55
2022-12-14T11:58:52.993Z,14.30
2022-12-14T12:01:26.773Z,14.70
2022-12-14T12:03:58.946Z,14.63
2022-12-14T12:06:29.032Z,14.75
2022-12-14T12:09:02.406Z,13.70
2022-12-14T12:11:32.235Z,12.40
2022-12-14T12:14:03.641Z,12.60
2022-12-14T12:16:33.366Z,12.27
2022-12-14T12:19:17.414Z,13.65
2022-12-14T12:21:45.206Z,12.52
2022-12-14T12:24:18.402Z,14.05
2022-12-14T12:27:11.961Z,14.88
2022-12-14T12:30:04.822Z,15.23
2022-12-14T12:32:50.490Z,15.48
2022-12-14T12:35:29.934Z,18.85
2022-12-14T12:38:03.304Z,18.60
2022-12-14T12:40:35.034Z,19.67
2022-12-14T12:43:12.931Z,24.17
2022-12-14T12:45:47.799Z,25.40
2022-12-14T12:48:30.334Z,19.48
2022-12-14T12:51:02.657Z,21.63
2022-12-14T12:53:50.152Z,19.75
2022-12-14T12:56:51.395Z,19.95
2022-12-14T12:59:30.693Z,18.20
2022-12-14T13:02:04.205Z,19.65
2022-12-14T13:04:36.453Z,20.08
2022-12-14T13:07:16.632Z,18.67
2022-12-14T13:10:01.876Z,17.90
2022-12-14T13:12:57.068Z,17.33
2022-12-14T13:15:31.349Z,18.25
2022-12-14T13:18:56.622Z,18.55
2022-12-14T13:21:19.974Z,18.20
2022-12-14T13:23:49.995Z,19.67
2022-12-14T13:27:02.947Z,19.70
2022-12-14T13:29:43.436Z,18.60
2022-12-14T13:32:37.222Z,18.00
2022-12-14T13:35:18.253Z,19.48
2022-12-14T13:38:04.429Z,19.67
2022-12-14T13:41:02.733Z,18.58
2022-12-14T13:44:08.980Z,17.80
2022-12-14T13:46:37.115Z,18.90
2022-12-14T13:49:09.058Z,17.40
2022-12-14T13:51:39.688Z,18.75
2022-12-14T13:54:20.854Z,19.10
2022-12-14T13:56:49.045Z,19.25
2022-12-14T13:59:44.061Z,20.38
2022-12-14T14:02:36.838Z,20.48
2022-12-14T14:08:02.944Z,20.80
2022-12-14T14:10:36.091Z,21.48
2022-12-14T14:13:28.558Z,21.58
2022-12-14T14:16:28.089Z,21.02
2022-12-14T14:19:18.171Z,19.77
2022-12-14T14:22:22.746Z,20.75
2022-12-14T14:25:09.630Z,20.42
2022-12-14T14:27:51.132Z,21.88
2022-12-14T14:30:43.769Z,23.55
2022-12-14T14:33:48.351Z,22.40
2022-12-14T14:36:37.089Z,22.27
2022-12-14T14:39:54.822Z,22.80
2022-12-14T14:42:21.174Z,23.52
2022-12-14T14:44:54.108Z,23.55
2022-12-14T14:47:25.366Z,22.67
2022-12-14T14:49:59.986Z,22.85
2022-12-14T14:52:58.740Z,23.80
2022-12-14T14:55:52.719Z,22.48
2022-12-14T14:58:25.727Z,21.83
2022-12-14T15:01:02.630Z,22.20
2022-12-14T15:03:43.689Z,23.92
2022-12-14T15:06:16.213Z,22.10
2022-12-14T15:08:48.550Z,22.20
2022-12-14T15:11:22.969Z,22.63
2022-12-14T15:13:58.775Z,26.50
2022-12-14T15:16:40.712Z,26.70
2022-12-14T15:19:33.812Z,25.88
2022-12-14T15:22:09.446Z,23.00
2022-12-14T15:24:40.257Z,23.00
2022-12-14T15:27:43.038Z,22.73
2022-12-14T15:30:12.486Z,24.17
2022-12-14T15:32:47.632Z,23.25
2022-12-14T15:35:24.862Z,23.48
2022-12-14T15:38:00.161Z,24.20
2022-12-14T15:41:32.562Z,23.13
2022-12-14T15:44:35.925Z,23.23
2022-12-14T15:47:39.632Z,23.45
2022-12-14T15:50:23.357Z,24.23
2022-12-14T16:07:45.266Z,24.35
2022-12-14T16:10:28.475Z,24.88
2022-12-14T16:23:01.483Z,26.70
2022-12-14T16:25:36.310Z,26.90
2022-12-14T16:28:27.388Z,25.75
2022-12-14T16:31:19.413Z,25.45
2022-12-14T16:34:19.305Z,26.48
2022-12-14T16:37:22.856Z,34.38
2022-12-14T16:39:44.091Z,35.38
2022-12-14T16:42:26.149Z,34.28
2022-12-14T16:44:54.227Z,27.92
2022-12-14T16:47:29.542Z,24.90
2022-12-14T16:50:14.142Z,25.05
2022-12-14T16:52:49.312Z,26.73
2022-12-14T16:55:19.644Z,25.05
2022-12-14T16:58:15.454Z,26.42
2022-12-14T17:01:53.328Z,24.92
2022-12-14T17:04:45.276Z,24.80
2022-12-14T17:08:00.399Z,25.15
2022-12-14T17:10:33.904Z,25.88
2022-12-14T17:13:27.718Z,25.95
2022-12-14T17:28:01.369Z,28.33
2022-12-14T17:45:12.562Z,60.22
2022-12-14T17:52:30.958Z,34.10
2022-12-14T18:05:14.048Z,30.90
2022-12-14T18:19:03.024Z,30.45
2022-12-14T18:30:07.319Z,31.98
2022-12-14T18:37:03.497Z,31.60
2022-12-14T18:39:43.780Z,30.77
2022-12-14T18:42:28.688Z,30.27
2022-12-14T18:46:37.113Z,31.35
2022-12-14T18:50:09.863Z,30.40
2022-12-14T18:54:36.439Z,32.42
2022-12-14T18:57:55.346Z,32.35
2022-12-14T19:01:36.726Z,32.28
2022-12-14T19:05:00.836Z,32.50
2022-12-14T19:12:36.832Z,32.30
2022-12-14T19:24:04.609Z,31.85
2022-12-14T19:29:58.000Z,32.10
2022-12-14T19:32:26.914Z,31.83
2022-12-14T19:34:55.274Z,31.23
2022-12-14T19:37:25.043Z,32.85
2022-12-14T19:39:54.000Z,32.05
2022-12-14T19:42:22.484Z,32.85
2022-12-14T19:44:49.877Z,37.45
2022-12-14T19:47:18.508Z,40.55
2022-12-14T19:49:46.288Z,34.90
2022-12-14T19:52:13.735Z,37.67
2022-12-14T19:54:41.343Z,38.58
2022-12-14T19:57:08.783Z,37.88
2022-12-14T19:59:36.253Z,33.90
2022-12-14T20:02:03.892Z,33.47
2022-12-14T20:04:35.366Z,38.83
2022-12-14T20:07:02.774Z,34.28
2022-12-14T20:09:30.350Z,31.45
2022-12-14T20:11:58.138Z,30.92
2022-12-14T20:14:25.568Z,31.95
2022-12-14T20:16:54.694Z,30.85
2022-12-14T20:19:22.816Z,31.95
2022-12-14T20:21:50.909Z,30.75
2022-12-14T20:24:18.579Z,30.73
2022-12-14T20:26:46.210Z,29.80
2022-12-14T20:29:16.880Z,30.25
2022-12-14T20:31:44.597Z,30.63
2022-12-14T20:34:12.099Z,31.63
2022-12-14T20:36:39.541Z,31.40
2022-12-14T20:39:07.278Z,31.15
2022-12-14T20:41:34.824Z,31.65
2022-12-14T20:44:02.726Z,31.40
2022-12-14T20:46:35.685Z,32.13
2022-12-14T20:49:10.372Z,31.77
2022-12-14T20:51:39.246Z,32.60
2022-12-14T20:54:08.626Z,32.25
2022-12-14T20:56:36.650Z,32.47
2022-12-14T20:59:05.020Z,33.55
2022-12-14T21:01:33.362Z,34.08
2022-12-14T21:04:01.954Z,33.03
2022-12-14T21:06:29.734Z,33.72
2022-12-14T21:09:06.200Z,34.13
2022-12-14T21:12:19.437Z,33.50
2022-12-14T21:14:53.595Z,33.47
2022-12-14T21:17:25.733Z,34.15
2022-12-14T21:19:54.196Z,32.92
2022-12-14T21:22:23.808Z,32.90
2022-12-14T21:25:07.733Z,32.70
2022-12-14T21:27:41.466Z,34.53
2022-12-14T21:30:11.324Z,33.35
2022-12-14T21:32:39.545Z,34.45
2022-12-14T21:35:07.185Z,33.17
2022-12-14T21:37:37.171Z,34.60
2022-12-14T21:40:05.250Z,48.85
2022-12-14T21:42:32.745Z,50.55
2022-12-14T21:45:00.181Z,38.65
2022-12-14T21:47:29.747Z,36.40
2022-12-14T21:49:57.556Z,36.88
2022-12-14T21:52:26.986Z,39.85
2022-12-14T21:54:54.929Z,36.17
2022-12-14T21:57:42.900Z,35.80
2022-12-14T22:00:18.524Z,36.40
2022-12-14T22:02:46.341Z,36.38
2022-12-14T22:08:10.436Z,37.25
2022-12-14T22:14:54.270Z,36.63
2022-12-14T22:28:55.364Z,38.17
2022-12-14T22:46:59.604Z,37.50
2022-12-14T22:49:40.194Z,36.63
2022-12-14T22:52:24.382Z,38.28
2022-12-14T22:55:00.624Z,39.30
2022-12-14T22:57:45.780Z,6.43
2022-12-14T23:00:32.460Z,38.67
2022-12-14T23:03:00.788Z,5.38
2022-12-14T23:05:34.134Z,37.47
2022-12-14T23:08:07.618Z,37.58
2022-12-14T23:11:18.020Z,37.15
2022-12-14T23:14:41.454Z,37.90
2022-12-14T23:21:13.131Z,82.47
2022-12-14T23:31:30.158Z,38.50
2022-12-14T23:57:50.638Z,37.08
